createdAt,value
2023-02-15T00:00:13.666Z,31.98
2023-02-15T00:02:41.738Z,32.03
2023-02-15T00:05:10.044Z,32.73
2023-02-15T00:07:38.051Z,33.33
2023-02-15T00:10:06.976Z,31.90
2023-02-15T00:12:34.918Z,33.67
2023-02-15T00:15:02.937Z,35.10
2023-02-15T00:17:31.118Z,34.40
2023-02-15T00:19:58.989Z,34.20
2023-02-15T00:22:27.193Z,34.13
2023-02-15T00:24:55.116Z,32.77
2023-02-15T00:27:23.104Z,33.53
2023-02-15T00:29:50.983Z,30.03
2023-02-15T00:32:18.896Z,32.00
2023-02-15T00:34:48.317Z,33.23
2023-02-15T00:37:16.319Z,32.10
2023-02-15T00:39:48.538Z,32.37
2023-02-15T00:42:16.327Z,34.63
2023-02-15T00:44:44.099Z,35.80
2023-02-15T00:47:12.027Z,33.80
2023-02-15T00:49:39.844Z,34.97
2023-02-15T00:52:07.815Z,33.13
2023-02-15T00:54:35.780Z,34.93
2023-02-15T00:57:03.670Z,33.03
2023-02-15T00:59:31.551Z,32.50
2023-02-15T01:01:59.453Z,34.03
2023-02-15T01:04:27.377Z,33.23
2023-02-15T01:06:55.255Z,33.47
2023-02-15T01:09:23.381Z,30.67
2023-02-15T01:11:51.359Z,30.90
2023-02-15T01:14:20.567Z,30.73
2023-02-15T01:16:48.489Z,31.77
2023-02-15T01:19:16.903Z,32.93
2023-02-15T01:21:44.800Z,34.90
2023-02-15T01:24:14.757Z,32.53
2023-02-15T01:26:42.626Z,32.53
2023-02-15T01:29:10.482Z,31.77
2023-02-15T01:31:40.168Z,32.63
2023-02-15T01:34:08.482Z,33.90
2023-02-15T01:36:36.841Z,31.13
2023-02-15T01:39:04.822Z,32.10
2023-02-15T01:41:33.803Z,29.47
2023-02-15T01:44:04.038Z,33.23
2023-02-15T01:46:51.167Z,30.87
2023-02-15T01:49:23.649Z,31.43
2023-02-15T01:51:53.939Z,31.43
2023-02-15T01:54:32.401Z,31.70
2023-02-15T01:57:11.275Z,32.55
2023-02-15T01:59:43.524Z,31.83
2023-02-15T02:02:15.687Z,32.13
2023-02-15T02:04:49.930Z,30.63
2023-02-15T02:07:23.039Z,33.60
2023-02-15T02:09:50.974Z,29.23
2023-02-15T02:12:20.650Z,30.07
2023-02-15T02:14:49.961Z,31.47
2023-02-15T02:17:47.358Z,30.53
2023-02-15T02:20:52.060Z,27.67
2023-02-15T02:23:25.227Z,29.23
2023-02-15T02:26:04.790Z,29.17
2023-02-15T02:28:54.202Z,28.67
2023-02-15T02:31:30.728Z,26.10
2023-02-15T02:34:19.915Z,27.77
2023-02-15T02:37:07.045Z,29.17
2023-02-15T02:39:59.820Z,25.93
2023-02-15T02:42:38.792Z,27.70
2023-02-15T02:45:34.428Z,29.13
2023-02-15T02:48:25.719Z,24.15
2023-02-15T02:50:53.540Z,24.83
2023-02-15T02:53:21.390Z,26.20
2023-02-15T02:56:21.735Z,26.33
2023-02-15T02:58:56.778Z,25.27
2023-02-15T03:01:30.357Z,25.63
2023-02-15T03:04:21.505Z,25.83
2023-02-15T03:07:03.817Z,25.57
2023-02-15T03:09:45.189Z,26.50
2023-02-15T03:12:29.084Z,25.47
2023-02-15T03:15:01.482Z,24.63
2023-02-15T03:17:37.021Z,25.53
2023-02-15T03:20:37.478Z,22.20
2023-02-15T03:23:18.508Z,24.20
2023-02-15T03:25:52.854Z,23.70
2023-02-15T03:28:44.444Z,23.23
2023-02-15T03:31:15.133Z,23.60
2023-02-15T03:33:56.222Z,23.90
2023-02-15T03:36:48.114Z,24.60
2023-02-15T03:39:36.091Z,22.37
2023-02-15T03:42:14.042Z,23.70
2023-02-15T03:45:06.571Z,20.50
2023-02-15T03:47:45.694Z,21.43
2023-02-15T03:50:35.940Z,25.27
2023-02-15T03:53:07.242Z,23.63
2023-02-15T03:55:36.737Z,24.93
2023-02-15T03:58:23.754Z,24.87
2023-02-15T04:01:19.486Z,24.20
2023-02-15T04:03:56.582Z,23.88
2023-02-15T04:06:24.399Z,23.67
2023-02-15T04:09:10.863Z,23.80
2023-02-15T04:11:38.702Z,24.10
2023-02-15T04:14:24.994Z,23.37
2023-02-15T04:16:52.950Z,23.27
2023-02-15T04:19:39.554Z,22.97
2023-02-15T04:22:26.092Z,21.43
2023-02-15T04:25:12.738Z,20.60
2023-02-15T04:27:46.471Z,20.57
2023-02-15T04:30:16.040Z,21.83
2023-02-15T04:32:43.946Z,20.03
2023-02-15T04:35:12.322Z,20.97
2023-02-15T04:37:41.527Z,20.60
2023-02-15T04:40:12.470Z,20.77
2023-02-15T04:42:40.273Z,19.87
2023-02-15T04:45:08.819Z,18.80
2023-02-15T04:47:36.790Z,19.53
2023-02-15T04:50:05.121Z,18.57
2023-02-15T04:52:33.021Z,19.33
2023-02-15T04:55:01.016Z,18.40
2023-02-15T04:57:28.924Z,19.40
2023-02-15T04:59:56.779Z,18.33
2023-02-15T05:02:24.595Z,18.47
2023-02-15T05:04:52.556Z,19.10
2023-02-15T05:07:21.425Z,17.90
2023-02-15T05:09:49.685Z,19.47
2023-02-15T05:12:17.562Z,18.47
2023-02-15T05:14:45.456Z,21.03
2023-02-15T05:17:13.319Z,19.67
2023-02-15T05:19:41.101Z,20.30
2023-02-15T05:22:08.939Z,17.50
2023-02-15T05:24:55.481Z,19.40
2023-02-15T05:27:41.957Z,19.33
2023-02-15T05:30:12.538Z,17.60
2023-02-15T05:32:40.911Z,17.27
2023-02-15T05:35:13.517Z,18.77
2023-02-15T05:37:41.394Z,20.33
2023-02-15T05:40:10.404Z,19.03
2023-02-15T05:42:38.180Z,18.97
2023-02-15T05:45:06.671Z,20.80
2023-02-15T05:47:34.517Z,20.03
2023-02-15T05:50:02.293Z,20.30
2023-02-15T05:52:30.319Z,18.10
2023-02-15T05:54:59.070Z,17.73
2023-02-15T05:57:27.441Z,19.60
2023-02-15T05:59:55.229Z,19.60
2023-02-15T06:02:23.234Z,19.80
2023-02-15T06:04:51.098Z,18.63
2023-02-15T06:07:18.863Z,19.83
2023-02-15T06:09:46.754Z,19.87
2023-02-15T06:12:14.699Z,19.97
2023-02-15T06:14:42.533Z,18.67
2023-02-15T06:17:10.484Z,18.30
2023-02-15T06:19:38.446Z,20.63
2023-02-15T06:22:07.359Z,19.47
2023-02-15T06:24:35.250Z,18.97
2023-02-15T06:27:03.106Z,19.10
2023-02-15T06:29:31.427Z,18.77
2023-02-15T06:31:59.432Z,19.23
2023-02-15T06:34:27.804Z,17.50
2023-02-15T06:36:55.996Z,18.87
2023-02-15T06:39:24.292Z,18.23
2023-02-15T06:41:52.814Z,16.83
2023-02-15T06:44:21.417Z,19.07
2023-02-15T06:46:49.773Z,18.87
2023-02-15T06:49:18.256Z,19.23
2023-02-15T06:51:46.732Z,20.43
2023-02-15T06:54:15.037Z,18.10
2023-02-15T06:56:44.468Z,19.50
2023-02-15T06:59:12.403Z,19.83
2023-02-15T07:01:40.386Z,18.07
2023-02-15T07:04:08.211Z,19.07
2023-02-15T07:06:37.025Z,20.47
2023-02-15T07:09:05.584Z,19.63
2023-02-15T07:11:51.991Z,17.90
2023-02-15T07:14:19.833Z,17.40
2023-02-15T07:16:47.663Z,19.33
2023-02-15T07:19:15.597Z,19.70
2023-02-15T07:21:44.902Z,18.93
2023-02-15T07:24:12.743Z,20.33
2023-02-15T07:26:40.650Z,20.63
2023-02-15T07:29:08.512Z,19.50
2023-02-15T07:31:36.485Z,20.70
2023-02-15T07:34:06.175Z,19.73
2023-02-15T07:36:34.196Z,20.53
2023-02-15T07:39:02.189Z,22.33
2023-02-15T07:41:30.135Z,21.23
2023-02-15T07:43:57.995Z,21.65
2023-02-15T07:46:26.167Z,21.30
2023-02-15T07:48:53.971Z,19.23
2023-02-15T07:51:21.831Z,18.52
2023-02-15T07:53:49.889Z,18.27
2023-02-15T07:56:17.768Z,19.85
2023-02-15T07:58:53.566Z,18.30
2023-02-15T08:01:30.421Z,17.95
2023-02-15T08:04:01.211Z,18.23
2023-02-15T08:06:32.867Z,18.00
2023-02-15T08:09:01.775Z,17.50
2023-02-15T08:11:35.013Z,17.30
2023-02-15T08:14:21.468Z,18.70
2023-02-15T08:16:53.484Z,19.63
2023-02-15T08:19:29.666Z,19.80
2023-02-15T08:21:58.883Z,19.23
2023-02-15T08:24:29.002Z,20.60
2023-02-15T08:26:57.536Z,21.42
2023-02-15T08:29:28.444Z,20.35
2023-02-15T08:32:03.551Z,21.15
2023-02-15T08:34:34.605Z,20.90
2023-02-15T08:37:02.608Z,20.98
2023-02-15T08:39:30.503Z,21.48
2023-02-15T08:41:58.303Z,22.63
2023-02-15T08:44:26.347Z,21.60
2023-02-15T08:46:55.692Z,21.02
2023-02-15T08:49:24.971Z,22.35
2023-02-15T08:51:52.932Z,21.15
2023-02-15T08:54:22.733Z,22.42
2023-02-15T08:56:50.688Z,21.33
2023-02-15T08:59:23.613Z,22.42
2023-02-15T09:01:53.514Z,20.58
2023-02-15T09:04:23.550Z,21.15
2023-02-15T09:06:53.108Z,22.23
2023-02-15T09:09:22.286Z,20.50
2023-02-15T09:11:56.744Z,22.02
2023-02-15T09:14:27.674Z,22.85
2023-02-15T09:16:56.311Z,21.95
2023-02-15T09:19:25.583Z,22.13
2023-02-15T09:21:53.776Z,21.58
2023-02-15T09:24:21.708Z,23.13
2023-02-15T09:26:50.432Z,22.45
2023-02-15T09:29:19.982Z,21.70
2023-02-15T09:31:50.755Z,22.88
2023-02-15T09:34:21.839Z,21.52
2023-02-15T09:36:50.920Z,21.70
2023-02-15T09:39:24.838Z,22.20
2023-02-15T09:42:17.431Z,21.95
2023-02-15T09:45:15.280Z,21.55
2023-02-15T09:48:12.184Z,21.20
2023-02-15T09:51:08.518Z,22.38
2023-02-15T09:54:09.351Z,21.02
2023-02-15T09:57:04.013Z,22.83
2023-02-15T10:00:08.257Z,20.75
2023-02-15T10:02:52.343Z,21.33
2023-02-15T10:05:54.517Z,22.02
2023-02-15T10:08:57.508Z,19.73
2023-02-15T10:11:45.317Z,22.25
2023-02-15T10:14:47.889Z,20.92
2023-02-15T10:17:28.346Z,21.55
2023-02-15T10:20:21.047Z,21.17
2023-02-15T10:23:14.568Z,22.35
2023-02-15T10:25:57.357Z,20.60
2023-02-15T10:28:32.801Z,20.95
2023-02-15T10:31:22.249Z,21.00
2023-02-15T10:34:04.200Z,20.88
2023-02-15T10:37:02.082Z,22.48
2023-02-15T10:39:48.755Z,21.55
2023-02-15T10:42:32.588Z,21.70
2023-02-15T10:45:14.741Z,21.42
2023-02-15T10:48:07.541Z,21.13
2023-02-15T10:50:57.860Z,19.60
2023-02-15T10:53:40.385Z,20.00
2023-02-15T10:56:13.298Z,21.42
2023-02-15T10:59:05.664Z,21.25
2023-02-15T11:01:42.768Z,19.40
2023-02-15T11:04:31.990Z,21.13
2023-02-15T11:07:04.939Z,19.95
2023-02-15T11:09:43.616Z,21.30
2023-02-15T11:12:20.493Z,19.90
2023-02-15T11:15:30.213Z,20.50
2023-02-15T11:18:11.306Z,20.25
2023-02-15T11:20:50.843Z,19.88
2023-02-15T11:23:19.476Z,18.60
2023-02-15T11:25:56.061Z,16.52
2023-02-15T11:28:39.994Z,16.77
2023-02-15T11:31:18.496Z,15.63
2023-02-15T11:33:56.844Z,16.60
2023-02-15T11:36:29.878Z,15.60
2023-02-15T11:39:10.499Z,14.10
2023-02-15T11:41:54.992Z,15.32
2023-02-15T11:44:28.539Z,15.55
2023-02-15T11:46:57.107Z,15.57
2023-02-15T11:49:35.317Z,14.90
2023-02-15T11:52:08.319Z,14.57
2023-02-15T11:54:40.715Z,15.93
2023-02-15T11:57:36.530Z,15.68
2023-02-15T12:00:25.947Z,14.90
2023-02-15T12:02:55.771Z,15.40
2023-02-15T12:05:26.108Z,15.00
2023-02-15T12:07:59.085Z,14.70
2023-02-15T12:10:30.960Z,15.27
2023-02-15T12:13:11.177Z,15.77
2023-02-15T12:15:43.074Z,16.45
2023-02-15T12:18:40.878Z,15.32
2023-02-15T12:21:24.964Z,16.70
2023-02-15T12:23:59.347Z,16.67
2023-02-15T12:26:35.878Z,16.20
2023-02-15T12:29:16.300Z,16.27
2023-02-15T12:31:50.393Z,15.77
2023-02-15T12:34:40.580Z,16.02
2023-02-15T12:37:18.749Z,16.73
2023-02-15T12:40:20.465Z,15.75
2023-02-15T12:42:48.439Z,16.40
2023-02-15T12:45:29.385Z,15.65
2023-02-15T12:48:13.843Z,16.55
2023-02-15T12:50:43.776Z,16.05
2023-02-15T12:53:35.642Z,14.80
2023-02-15T12:56:09.992Z,15.20
2023-02-15T12:58:40.500Z,15.95
2023-02-15T13:01:18.357Z,15.30
2023-02-15T13:04:14.893Z,15.50
2023-02-15T13:06:50.375Z,15.82
2023-02-15T13:09:30.877Z,15.25
2023-02-15T13:12:28.776Z,14.48
2023-02-15T13:14:57.724Z,15.18
2023-02-15T13:17:32.497Z,15.65
2023-02-15T13:22:46.586Z,14.30
2023-02-15T13:25:23.659Z,15.43
2023-02-15T13:28:00.895Z,16.10
2023-02-15T13:30:43.160Z,15.13
2023-02-15T13:33:21.414Z,13.75
2023-02-15T13:36:03.779Z,14.95
2023-02-15T13:39:18.036Z,15.70
2023-02-15T13:42:01.498Z,16.55
2023-02-15T13:44:45.614Z,14.43
2023-02-15T13:47:42.252Z,15.43
2023-02-15T13:50:23.014Z,14.95
2023-02-15T13:53:07.125Z,15.52
2023-02-15T13:55:51.634Z,13.77
2023-02-15T13:58:42.741Z,14.70
2023-02-15T14:01:12.004Z,14.32
2023-02-15T14:04:03.216Z,15.70
2023-02-15T14:06:40.201Z,15.40
2023-02-15T14:09:29.556Z,14.82
2023-02-15T14:12:46.504Z,14.68
2023-02-15T14:15:35.274Z,13.77
2023-02-15T14:18:28.196Z,14.90
2023-02-15T14:21:10.688Z,15.50
2023-02-15T14:23:47.372Z,15.30
2023-02-15T14:26:43.814Z,16.27
2023-02-15T14:29:14.977Z,16.25
2023-02-15T14:31:46.857Z,16.27
2023-02-15T14:34:31.315Z,16.80
2023-02-15T14:36:59.962Z,16.33
2023-02-15T14:40:00.759Z,17.05
2023-02-15T14:42:42.194Z,16.77
2023-02-15T14:45:27.257Z,17.95
2023-02-15T14:50:32.198Z,17.77
2023-02-15T14:53:25.590Z,18.80
2023-02-15T14:56:20.786Z,18.60
2023-02-15T14:58:52.626Z,17.65
2023-02-15T15:02:00.143Z,16.95
2023-02-15T15:04:34.210Z,17.60
2023-02-15T15:07:23.588Z,18.40
2023-02-15T15:10:17.914Z,19.15
2023-02-15T15:12:51.275Z,19.05
2023-02-15T15:15:31.059Z,18.58
2023-02-15T15:18:09.556Z,18.40
2023-02-15T15:20:51.650Z,19.10
2023-02-15T15:23:19.936Z,19.38
2023-02-15T15:25:52.899Z,18.27
2023-02-15T15:28:36.069Z,19.30
2023-02-15T15:31:24.898Z,18.30
2023-02-15T15:34:19.233Z,19.13
2023-02-15T15:37:11.091Z,19.27
2023-02-15T15:40:08.474Z,19.00
2023-02-15T15:42:54.243Z,19.45
2023-02-15T15:46:06.784Z,20.40
2023-02-15T15:48:39.792Z,20.27
2023-02-15T15:51:12.711Z,20.88
2023-02-15T15:53:46.763Z,23.23
2023-02-15T15:56:20.036Z,21.85
2023-02-15T15:58:55.308Z,21.77
2023-02-15T16:01:29.535Z,21.38
2023-02-15T16:03:59.579Z,22.65
2023-02-15T16:06:39.298Z,21.05
2023-02-15T16:09:27.871Z,21.90
2023-02-15T16:12:06.041Z,21.23
2023-02-15T16:14:38.120Z,22.30
2023-02-15T16:17:20.508Z,22.10
2023-02-15T16:19:49.231Z,22.35
2023-02-15T16:22:24.282Z,34.42
2023-02-15T16:25:11.873Z,28.35
2023-02-15T16:27:42.948Z,21.95
2023-02-15T16:30:32.299Z,22.23
2023-02-15T16:33:07.916Z,22.77
2023-02-15T16:35:54.191Z,22.35
2023-02-15T16:38:43.438Z,22.95
2023-02-15T16:41:31.349Z,23.00
2023-02-15T16:44:05.942Z,22.67
2023-02-15T16:46:42.972Z,23.02
2023-02-15T16:49:29.259Z,22.45
2023-02-15T16:52:09.523Z,22.83
2023-02-15T16:54:37.596Z,21.88
2023-02-15T16:57:05.605Z,22.65
2023-02-15T16:59:45.851Z,23.17
2023-02-15T17:02:54.518Z,24.35
2023-02-15T17:05:21.768Z,27.40
2023-02-15T17:08:08.047Z,24.23
2023-02-15T17:10:42.674Z,30.48
2023-02-15T17:13:14.601Z,38.55
2023-02-15T17:15:44.576Z,26.88
2023-02-15T17:18:22.836Z,24.63
2023-02-15T17:20:54.554Z,21.73
2023-02-15T17:23:37.056Z,23.67
2023-02-15T17:26:16.494Z,22.88
2023-02-15T17:28:53.876Z,24.10
2023-02-15T17:31:25.205Z,23.08
2023-02-15T17:33:55.334Z,23.13
2023-02-15T17:36:25.572Z,24.05
2023-02-15T17:38:59.413Z,25.17
2023-02-15T17:41:35.603Z,24.20
2023-02-15T17:44:04.302Z,24.52
2023-02-15T17:46:37.678Z,23.38
2023-02-15T17:49:05.927Z,23.98
2023-02-15T17:51:36.067Z,24.90
2023-02-15T17:54:23.178Z,24.98
2023-02-15T17:56:51.094Z,24.15
2023-02-15T17:59:19.210Z,24.58
2023-02-15T18:02:08.248Z,24.50
2023-02-15T18:04:56.755Z,24.20
2023-02-15T18:07:43.676Z,24.02
2023-02-15T18:10:35.816Z,23.77
2023-02-15T18:13:03.984Z,23.40
2023-02-15T18:15:31.855Z,23.10
2023-02-15T18:17:59.907Z,22.63
2023-02-15T18:20:37.884Z,24.05
2023-02-15T18:23:09.611Z,24.27
2023-02-15T18:25:37.669Z,25.08
2023-02-15T18:28:06.532Z,25.58
2023-02-15T18:30:34.801Z,24.15
2023-02-15T18:33:02.858Z,25.17
2023-02-15T18:35:33.419Z,25.13
2023-02-15T18:38:02.266Z,24.70
2023-02-15T18:40:33.421Z,24.65
2023-02-15T18:43:01.409Z,23.02
2023-02-15T18:45:35.284Z,25.15
2023-02-15T18:48:03.646Z,24.38
2023-02-15T18:50:38.484Z,24.30
2023-02-15T18:53:13.554Z,24.98
2023-02-15T18:55:41.629Z,25.10
2023-02-15T18:58:24.742Z,24.55
2023-02-15T19:00:52.825Z,24.75
2023-02-15T19:03:20.674Z,26.23
2023-02-15T19:05:48.697Z,26.08
2023-02-15T19:08:24.366Z,27.70
2023-02-15T19:10:52.859Z,26.70
2023-02-15T19:13:20.940Z,25.33
2023-02-15T19:15:48.826Z,26.80
2023-02-15T19:18:17.640Z,25.88
2023-02-15T19:20:46.902Z,25.30
2023-02-15T19:23:24.314Z,23.92
2023-02-15T19:25:54.618Z,25.23
2023-02-15T19:28:34.930Z,24.88
2023-02-15T19:31:02.885Z,24.30
2023-02-15T19:33:31.043Z,24.30
2023-02-15T19:35:59.308Z,23.35
2023-02-15T19:38:32.210Z,24.83
2023-02-15T19:41:13.967Z,23.38
2023-02-15T19:43:41.824Z,24.15
2023-02-15T19:46:19.178Z,22.80
2023-02-15T19:48:50.055Z,23.50
2023-02-15T19:51:23.280Z,23.75
2023-02-15T19:53:51.684Z,23.92
2023-02-15T19:56:26.934Z,24.52
2023-02-15T19:58:57.740Z,24.20
2023-02-15T20:01:25.816Z,23.50
2023-02-15T20:03:54.483Z,23.85
2023-02-15T20:06:22.417Z,23.13
2023-02-15T20:08:51.078Z,23.65
2023-02-15T20:11:18.958Z,23.00
2023-02-15T20:13:46.864Z,23.08
2023-02-15T20:16:14.829Z,24.20
2023-02-15T20:18:46.482Z,22.92
2023-02-15T20:21:16.813Z,22.38
2023-02-15T20:23:45.666Z,23.52
2023-02-15T20:26:18.275Z,24.33
2023-02-15T20:28:46.785Z,23.52
2023-02-15T20:31:17.114Z,23.17
2023-02-15T20:33:45.029Z,24.42
2023-02-15T20:36:17.570Z,23.15
2023-02-15T20:38:46.481Z,23.95
2023-02-15T20:41:35.689Z,22.63
2023-02-15T20:44:25.647Z,22.35
2023-02-15T20:46:58.826Z,23.95
2023-02-15T20:49:28.378Z,23.60
2023-02-15T20:51:57.425Z,24.45
2023-02-15T20:54:30.748Z,24.58
2023-02-15T20:56:59.147Z,23.25
2023-02-15T20:59:32.898Z,24.58
2023-02-15T21:02:20.434Z,25.33
2023-02-15T21:04:48.372Z,23.55
2023-02-15T21:07:21.758Z,23.13
2023-02-15T21:09:50.189Z,23.52
2023-02-15T21:12:19.939Z,23.10
2023-02-15T21:14:48.068Z,23.17
2023-02-15T21:17:17.366Z,23.52
2023-02-15T21:19:46.188Z,23.38
2023-02-15T21:22:15.772Z,22.15
2023-02-15T21:24:55.118Z,22.80
2023-02-15T21:27:24.102Z,22.15
2023-02-15T21:29:52.696Z,23.52
2023-02-15T21:32:21.038Z,22.92
2023-02-15T21:34:49.261Z,22.98
2023-02-15T21:37:33.845Z,24.05
2023-02-15T21:40:02.844Z,23.65
2023-02-15T21:42:49.238Z,23.45
2023-02-15T21:45:37.706Z,22.63
2023-02-15T21:48:05.594Z,22.65
2023-02-15T21:50:54.551Z,21.83
2023-02-15T21:53:27.499Z,22.98
2023-02-15T21:55:58.164Z,22.63
2023-02-15T21:58:28.844Z,22.75
2023-02-15T22:00:59.143Z,22.58
2023-02-15T22:03:34.912Z,21.98
2023-02-15T22:06:03.660Z,21.92
2023-02-15T22:08:36.370Z,23.25
2023-02-15T22:11:09.868Z,21.88
2023-02-15T22:13:38.036Z,21.73
2023-02-15T22:16:06.053Z,23.27
2023-02-15T22:18:34.732Z,23.55
2023-02-15T22:21:04.468Z,22.50
2023-02-15T22:23:32.727Z,23.73
2023-02-15T22:26:05.525Z,23.35
2023-02-15T22:28:36.518Z,22.98
2023-02-15T22:31:06.818Z,22.42
2023-02-15T22:33:35.083Z,22.92
2023-02-15T22:36:03.158Z,22.40
2023-02-15T22:38:31.016Z,22.83
2023-02-15T22:41:04.064Z,23.52
2023-02-15T22:43:40.872Z,22.63
2023-02-15T22:46:18.988Z,24.23
2023-02-15T22:48:48.236Z,23.55
2023-02-15T22:51:22.036Z,23.27
2023-02-15T22:53:52.221Z,23.85
2023-02-15T22:56:42.488Z,22.50
2023-02-15T22:59:36.463Z,23.48
2023-02-15T23:02:06.443Z,23.95
2023-02-15T23:04:34.341Z,23.23
2023-02-15T23:07:05.775Z,23.88
2023-02-15T23:09:33.548Z,24.35
2023-02-15T23:12:01.402Z,23.38
2023-02-15T23:14:34.578Z,23.77
2023-02-15T23:17:02.805Z,22.60
2023-02-15T23:19:32.999Z,22.73
2023-02-15T23:22:00.978Z,23.05
2023-02-15T23:24:31.303Z,24.45
2023-02-15T23:27:19.072Z,25.08
2023-02-15T23:29:47.386Z,23.20
2023-02-15T23:32:15.836Z,24.63
2023-02-15T23:34:43.852Z,24.30
2023-02-15T23:37:12.982Z,23.73
2023-02-15T23:39:59.412Z,25.73
2023-02-15T23:42:30.778Z,22.67
2023-02-15T23:44:58.802Z,24.05
2023-02-15T23:47:49.920Z,24.35
2023-02-15T23:50:27.124Z,24.38
2023-02-15T23:52:56.450Z,23.45
2023-02-15T23:55:33.004Z,24.00
2023-02-15T23:58:01.170Z,24.38
